createdAt,value
2023-03-14T00:01:12.767Z,32.60
2023-03-14T00:03:41.095Z,23.20
2023-03-14T00:06:10.235Z,28.40
2023-03-14T00:08:38.655Z,25.00
2023-03-14T00:11:18.460Z,30.70
2023-03-14T00:13:51.021Z,33.90
2023-03-14T00:16:21.774Z,23.40
2023-03-14T00:18:49.845Z,17.10
2023-03-14T00:21:18.248Z,16.30
2023-03-14T00:23:46.275Z,21.20
2023-03-14T00:26:16.991Z,16.90
2023-03-14T00:28:45.516Z,14.70
2023-03-14T00:31:16.065Z,14.90
2023-03-14T00:33:45.749Z,35.60
2023-03-14T00:36:18.128Z,15.90
2023-03-14T00:38:48.816Z,13.10
2023-03-14T00:41:19.714Z,17.40
2023-03-14T00:43:49.299Z,11.00
2023-03-14T00:46:17.412Z,18.50
2023-03-14T00:48:47.035Z,14.80
2023-03-14T00:51:16.429Z,15.70
2023-03-14T00:53:45.211Z,9.90
2023-03-14T00:56:14.139Z,10.90
2023-03-14T00:58:41.956Z,8.40
2023-03-14T01:01:13.617Z,9.30
2023-03-14T01:03:41.663Z,5.10
2023-03-14T01:06:12.822Z,5.20
2023-03-14T01:08:41.148Z,10.60
2023-03-14T01:11:16.351Z,6.10
2023-03-14T01:13:44.237Z,4.30
2023-03-14T01:16:13.474Z,7.70
2023-03-14T01:18:44.656Z,5.10
2023-03-14T01:21:16.351Z,4.30
2023-03-14T01:23:45.612Z,5.40
2023-03-14T01:26:16.661Z,4.90
2023-03-14T01:28:44.493Z,6.10
2023-03-14T01:31:13.862Z,3.70
2023-03-14T01:33:42.149Z,5.20
2023-03-14T01:36:11.527Z,4.00
2023-03-14T01:38:41.022Z,5.50
2023-03-14T01:41:26.083Z,3.20
2023-03-14T01:43:55.346Z,2.80
2023-03-14T01:46:31.578Z,3.40
2023-03-14T01:49:15.298Z,3.10
2023-03-14T01:52:23.828Z,2.30
2023-03-14T01:55:06.850Z,3.10
2023-03-14T01:57:44.159Z,2.70
2023-03-14T02:00:18.002Z,3.80
2023-03-14T02:02:48.642Z,4.10
2023-03-14T02:05:24.078Z,4.90
2023-03-14T02:08:00.040Z,5.90
2023-03-14T02:10:38.097Z,3.80
2023-03-14T02:13:06.768Z,6.30
2023-03-14T02:15:47.150Z,4.50
2023-03-14T02:18:35.239Z,5.50
2023-03-14T02:21:20.016Z,36.00
2023-03-14T02:24:06.979Z,17.20
2023-03-14T02:27:09.428Z,36.50
2023-03-14T02:29:48.262Z,34.90
2023-03-14T02:32:18.853Z,38.70
2023-03-14T02:34:51.039Z,29.80
2023-03-14T02:37:22.857Z,40.10
2023-03-14T02:39:50.686Z,24.60
2023-03-14T02:42:19.673Z,40.70
2023-03-14T02:45:16.727Z,50.30
2023-03-14T02:47:52.753Z,18.80
2023-03-14T02:52:51.654Z,16.80
2023-03-14T02:55:23.860Z,33.20
2023-03-14T02:57:52.474Z,13.00
2023-03-14T03:00:20.726Z,10.90
2023-03-14T03:02:48.601Z,27.90
2023-03-14T03:05:16.683Z,30.20
2023-03-14T03:07:44.533Z,24.10
2023-03-14T03:10:12.811Z,41.70
2023-03-14T03:12:40.765Z,28.70
2023-03-14T03:15:09.024Z,31.60
2023-03-14T03:17:37.751Z,20.00
2023-03-14T03:20:10.239Z,22.40
2023-03-14T03:22:40.777Z,15.20
2023-03-14T03:25:11.537Z,20.00
2023-03-14T03:27:39.563Z,24.50
2023-03-14T03:30:09.538Z,25.40
2023-03-14T03:32:37.758Z,27.30
2023-03-14T03:35:07.573Z,29.90
2023-03-14T03:37:38.378Z,14.20
2023-03-14T03:40:08.646Z,22.90
2023-03-14T03:42:37.226Z,23.70
2023-03-14T03:45:06.028Z,18.80
2023-03-14T03:47:35.605Z,28.00
2023-03-14T03:50:04.948Z,26.80
2023-03-14T03:52:33.557Z,13.20
2023-03-14T03:55:01.507Z,24.70
2023-03-14T03:57:30.147Z,17.20
2023-03-14T03:59:58.022Z,20.70
2023-03-14T04:02:25.827Z,18.50
2023-03-14T04:04:54.156Z,14.20
2023-03-14T04:07:22.087Z,12.70
2023-03-14T04:09:50.611Z,13.70
2023-03-14T04:12:47.396Z,11.80
2023-03-14T04:15:20.409Z,19.90
2023-03-14T04:17:57.011Z,14.60
2023-03-14T04:20:25.054Z,13.10
2023-03-14T04:22:53.506Z,13.60
2023-03-14T04:25:21.455Z,15.70
2023-03-14T04:27:54.174Z,12.90
2023-03-14T04:30:26.046Z,19.10
2023-03-14T04:33:03.722Z,13.10
2023-03-14T04:35:33.896Z,222.40
2023-03-14T04:38:06.428Z,47.90
2023-03-14T04:40:38.458Z,281.80
2023-03-14T04:43:09.315Z,206.80
2023-03-14T04:45:37.909Z,154.60
2023-03-14T04:48:08.818Z,97.70
2023-03-14T04:50:36.796Z,108.00
2023-03-14T04:53:04.673Z,142.70
2023-03-14T04:55:35.799Z,98.30
2023-03-14T04:58:03.828Z,52.70
2023-03-14T05:00:31.898Z,49.30
2023-03-14T05:03:10.186Z,68.50
2023-03-14T05:05:58.494Z,83.50
2023-03-14T05:08:45.997Z,27.00
2023-03-14T05:11:33.752Z,33.70
2023-03-14T05:14:16.753Z,91.10
2023-03-14T05:17:03.503Z,237.90
2023-03-14T05:20:10.200Z,110.20
2023-03-14T05:22:56.709Z,135.30
2023-03-14T05:26:03.218Z,124.80
2023-03-14T05:28:40.563Z,191.10
2023-03-14T05:31:14.724Z,161.10
2023-03-14T05:34:01.047Z,55.90
2023-03-14T05:36:58.309Z,177.20
2023-03-14T05:39:49.246Z,89.10
2023-03-14T05:42:34.411Z,131.60
2023-03-14T05:45:19.223Z,66.50
2023-03-14T05:48:03.651Z,51.40
2023-03-14T05:53:24.601Z,56.60
2023-03-14T05:56:11.380Z,68.10
2023-03-14T05:59:08.599Z,72.30
2023-03-14T06:01:59.645Z,105.40
2023-03-14T06:04:29.090Z,85.80
2023-03-14T06:06:59.802Z,106.70
2023-03-14T06:09:27.662Z,114.60
2023-03-14T06:11:57.600Z,147.50
2023-03-14T06:14:25.684Z,160.10
2023-03-14T06:16:54.267Z,108.90
2023-03-14T06:19:23.316Z,164.00
2023-03-14T06:21:51.375Z,108.20
2023-03-14T06:24:19.311Z,147.10
2023-03-14T06:26:48.697Z,120.80
2023-03-14T06:29:16.689Z,204.00
2023-03-14T06:31:45.214Z,105.20
2023-03-14T06:34:16.244Z,111.20
2023-03-14T06:36:45.177Z,90.80
2023-03-14T06:39:13.196Z,54.00
2023-03-14T06:41:43.863Z,71.30
2023-03-14T06:44:12.071Z,79.40
2023-03-14T06:46:40.015Z,97.20
2023-03-14T06:49:07.920Z,75.20
2023-03-14T06:51:35.889Z,111.80
2023-03-14T06:54:05.365Z,67.20
2023-03-14T06:56:33.610Z,81.30
2023-03-14T06:59:01.804Z,54.70
2023-03-14T07:01:33.852Z,45.60
2023-03-14T07:04:10.610Z,50.10
2023-03-14T07:06:45.297Z,79.80
2023-03-14T07:09:13.539Z,23.10
2023-03-14T07:11:44.743Z,33.10
2023-03-14T07:14:13.222Z,52.70
2023-03-14T07:16:41.064Z,23.90
2023-03-14T07:19:09.049Z,29.80
2023-03-14T07:21:37.690Z,65.60
2023-03-14T07:24:08.903Z,39.60
2023-03-14T07:26:36.934Z,56.20
2023-03-14T07:29:04.921Z,48.40
2023-03-14T07:31:33.202Z,40.10
2023-03-14T07:34:01.443Z,85.50
2023-03-14T07:36:33.318Z,49.70
2023-03-14T07:39:01.215Z,82.50
2023-03-14T07:41:41.736Z,74.70
2023-03-14T07:44:41.842Z,68.10
2023-03-14T07:47:10.474Z,74.40
2023-03-14T07:49:38.799Z,37.40
2023-03-14T07:52:06.830Z,29.70
2023-03-14T07:54:34.673Z,49.20
2023-03-14T07:57:02.858Z,31.60
2023-03-14T07:59:31.319Z,49.50
2023-03-14T08:01:59.776Z,35.00
2023-03-14T08:04:28.504Z,55.90
2023-03-14T08:06:56.307Z,73.10
2023-03-14T08:09:24.332Z,37.30
2023-03-14T08:11:52.126Z,33.80
2023-03-14T08:14:20.028Z,36.70
2023-03-14T08:16:48.151Z,14.40
2023-03-14T08:19:15.965Z,23.10
2023-03-14T08:21:44.410Z,21.20
2023-03-14T08:24:12.281Z,17.40
2023-03-14T08:26:40.282Z,14.40
2023-03-14T08:29:09.181Z,9.30
2023-03-14T08:31:37.066Z,8.10
2023-03-14T08:34:05.200Z,15.00
2023-03-14T08:36:33.631Z,13.50
2023-03-14T08:39:01.590Z,9.40
2023-03-14T08:41:29.649Z,20.10
2023-03-14T08:43:57.621Z,6.10
2023-03-14T08:46:25.600Z,11.60
2023-03-14T08:48:53.394Z,12.10
2023-03-14T08:51:21.267Z,12.90
2023-03-14T08:53:49.072Z,8.40
2023-03-14T08:56:16.911Z,10.00
2023-03-14T08:58:45.046Z,11.80
2023-03-14T09:01:13.265Z,10.20
2023-03-14T09:03:41.162Z,10.30
2023-03-14T09:06:10.973Z,11.80
2023-03-14T09:08:39.682Z,9.40
2023-03-14T09:11:09.686Z,12.30
2023-03-14T09:13:37.778Z,7.50
2023-03-14T09:16:07.408Z,12.90
2023-03-14T09:18:35.715Z,9.00
2023-03-14T09:21:04.043Z,13.30
2023-03-14T09:23:32.381Z,11.60
2023-03-14T09:26:01.244Z,10.70
2023-03-14T09:28:29.699Z,8.20
2023-03-14T09:30:57.591Z,8.90
2023-03-14T09:33:25.552Z,6.50
2023-03-14T09:35:53.505Z,10.30
2023-03-14T09:38:21.901Z,10.10
2023-03-14T09:40:50.676Z,7.30
2023-03-14T09:43:18.686Z,6.00
2023-03-14T09:45:49.597Z,6.60
2023-03-14T09:48:22.260Z,6.90
2023-03-14T09:50:53.749Z,9.60
2023-03-14T09:53:27.124Z,15.70
2023-03-14T09:55:56.369Z,14.60
2023-03-14T09:58:25.608Z,12.70
2023-03-14T10:00:57.511Z,9.10
2023-03-14T10:03:30.610Z,5.60
2023-03-14T10:05:58.484Z,7.00
2023-03-14T10:08:27.470Z,7.00
2023-03-14T10:10:55.748Z,8.10
2023-03-14T10:13:30.419Z,8.10
2023-03-14T10:16:05.262Z,6.20
2023-03-14T10:18:36.861Z,6.70
2023-03-14T10:21:17.833Z,9.50
2023-03-14T10:23:47.997Z,6.40
2023-03-14T10:26:29.021Z,12.20
2023-03-14T10:29:14.053Z,8.00
2023-03-14T10:31:53.277Z,4.00
2023-03-14T10:34:30.721Z,4.90
2023-03-14T10:37:06.673Z,7.90
2023-03-14T10:42:14.669Z,8.20
2023-03-14T10:44:43.253Z,7.70
2023-03-14T10:47:21.535Z,9.40
2023-03-14T10:49:49.700Z,8.60
2023-03-14T10:52:57.406Z,7.50
2023-03-14T10:55:17.933Z,7.30
2023-03-14T10:57:45.915Z,9.80
2023-03-14T11:00:23.128Z,9.10
2023-03-14T11:02:54.070Z,8.00
2023-03-14T11:05:41.056Z,8.60
2023-03-14T11:08:30.585Z,5.80
2023-03-14T11:11:23.167Z,8.00
2023-03-14T11:14:08.640Z,7.00
2023-03-14T11:16:59.789Z,10.30
2023-03-14T11:19:39.415Z,8.40
2023-03-14T11:22:40.448Z,9.10
2023-03-14T11:25:27.351Z,8.50
2023-03-14T11:28:08.915Z,9.90
2023-03-14T11:30:47.474Z,8.60
2023-03-14T11:33:26.184Z,10.50
2023-03-14T11:36:12.946Z,9.40
2023-03-14T11:38:53.817Z,9.10
2023-03-14T11:41:27.062Z,8.80
2023-03-14T11:43:57.987Z,7.30
2023-03-14T11:46:27.929Z,7.10
2023-03-14T11:49:23.309Z,6.60
2023-03-14T11:54:36.468Z,9.00
2023-03-14T11:57:06.944Z,7.90
2023-03-14T12:00:13.783Z,7.30
2023-03-14T12:02:41.634Z,6.50
2023-03-14T12:05:43.632Z,8.20
2023-03-14T12:08:17.321Z,8.70
2023-03-14T12:10:48.122Z,11.20
2023-03-14T12:13:17.833Z,9.80
2023-03-14T12:16:00.784Z,7.70
2023-03-14T12:18:40.555Z,6.00
2023-03-14T12:21:12.176Z,15.30
2023-03-14T12:23:52.700Z,4.40
2023-03-14T12:26:44.256Z,6.60
2023-03-14T12:29:19.093Z,6.90
2023-03-14T12:31:50.002Z,9.40
2023-03-14T12:34:17.938Z,6.70
2023-03-14T12:36:55.400Z,6.50
2023-03-14T12:39:38.890Z,5.70
2023-03-14T12:42:11.711Z,10.50
2023-03-14T12:44:50.316Z,10.00
2023-03-14T12:47:21.049Z,6.60
2023-03-14T12:49:58.310Z,28.20
2023-03-14T12:52:44.663Z,9.50
2023-03-14T12:55:37.290Z,16.70
2023-03-14T12:58:39.888Z,14.70
2023-03-14T13:01:15.878Z,5.80
2023-03-14T13:06:55.062Z,4.70
2023-03-14T13:09:28.796Z,6.60
2023-03-14T13:12:02.876Z,13.30
2023-03-14T13:14:32.361Z,14.70
2023-03-14T13:17:10.429Z,53.00
2023-03-14T13:19:57.355Z,21.10
2023-03-14T13:22:29.896Z,43.70
2023-03-14T13:25:03.293Z,35.40
2023-03-14T13:27:34.217Z,53.20
2023-03-14T13:30:16.794Z,14.00
2023-03-14T13:32:48.777Z,20.30
2023-03-14T13:35:46.147Z,16.60
2023-03-14T13:38:19.306Z,39.50
2023-03-14T13:40:48.511Z,43.50
2023-03-14T13:43:16.391Z,12.80
2023-03-14T13:45:50.454Z,27.30
2023-03-14T13:48:19.561Z,19.00
2023-03-14T13:50:53.292Z,15.00
2023-03-14T13:53:21.410Z,10.30
2023-03-14T13:55:51.376Z,9.60
2023-03-14T13:58:31.546Z,6.10
2023-03-14T14:01:12.698Z,19.20
2023-03-14T14:03:42.893Z,19.80
2023-03-14T14:06:28.284Z,10.50
2023-03-14T14:08:58.623Z,5.40
2023-03-14T14:11:48.917Z,14.90
2023-03-14T14:14:32.559Z,6.10
2023-03-14T14:17:02.714Z,10.60
2023-03-14T14:19:34.219Z,12.60
2023-03-14T14:22:03.879Z,11.30
2023-03-14T14:24:33.591Z,19.70
2023-03-14T14:27:09.532Z,21.20
2023-03-14T14:32:08.113Z,11.70
2023-03-14T14:34:50.865Z,11.10
2023-03-14T14:37:28.668Z,8.70
2023-03-14T14:39:59.963Z,9.90
2023-03-14T14:42:32.764Z,12.30
2023-03-14T14:45:04.040Z,23.60
2023-03-14T14:47:32.129Z,16.70
2023-03-14T14:50:04.474Z,22.40
2023-03-14T14:52:39.210Z,16.20
2023-03-14T14:55:20.726Z,28.20
2023-03-14T14:57:57.689Z,49.60
2023-03-14T15:00:28.109Z,25.70
2023-03-14T15:03:00.019Z,25.10
2023-03-14T15:05:31.378Z,34.40
2023-03-14T15:07:59.236Z,22.40
2023-03-14T15:10:27.404Z,18.70
2023-03-14T15:12:55.780Z,27.80
2023-03-14T15:15:23.586Z,22.60
2023-03-14T15:17:51.506Z,20.70
2023-03-14T15:20:20.596Z,19.80
2023-03-14T15:22:48.550Z,18.50
2023-03-14T15:25:39.926Z,53.00
2023-03-14T15:28:04.814Z,34.10
2023-03-14T15:30:32.765Z,25.70
2023-03-14T15:33:00.713Z,21.40
2023-03-14T15:35:28.625Z,16.30
2023-03-14T15:37:56.485Z,17.50
2023-03-14T15:40:25.704Z,23.40
2023-03-14T15:42:53.554Z,32.00
2023-03-14T15:45:21.414Z,26.10
2023-03-14T15:47:49.329Z,26.20
2023-03-14T15:50:17.413Z,25.20
2023-03-14T15:52:45.219Z,17.20
2023-03-14T15:55:13.201Z,22.00
2023-03-14T15:57:43.968Z,25.60
2023-03-14T16:00:19.565Z,21.80
2023-03-14T16:02:47.360Z,23.90
2023-03-14T16:05:16.839Z,18.80
2023-03-14T16:07:45.007Z,24.90
2023-03-14T16:10:14.476Z,26.40
2023-03-14T16:12:43.181Z,22.50
2023-03-14T16:15:11.324Z,25.40
2023-03-14T16:17:41.247Z,36.80
2023-03-14T16:20:09.709Z,55.80
2023-03-14T16:22:37.595Z,48.60
2023-03-14T16:25:07.330Z,69.10
2023-03-14T16:27:35.310Z,76.30
2023-03-14T16:30:04.379Z,41.40
2023-03-14T16:32:32.437Z,34.60
2023-03-14T16:35:00.459Z,29.00
2023-03-14T16:37:28.473Z,33.70
2023-03-14T16:40:11.576Z,48.30
2023-03-14T16:42:59.705Z,42.90
2023-03-14T16:45:28.930Z,32.60
2023-03-14T16:47:56.884Z,39.40
2023-03-14T16:50:24.779Z,44.80
2023-03-14T16:52:52.740Z,30.50
2023-03-14T16:55:20.865Z,27.50
2023-03-14T16:57:48.846Z,25.30
2023-03-14T17:00:17.221Z,39.30
2023-03-14T17:02:45.145Z,45.20
2023-03-14T17:05:13.132Z,34.70
2023-03-14T17:07:41.572Z,148.60
2023-03-14T17:10:11.370Z,185.20
2023-03-14T17:12:39.171Z,325.60
2023-03-14T17:15:08.003Z,363.40
2023-03-14T17:17:35.993Z,215.00
2023-03-14T17:20:05.958Z,180.30
2023-03-14T17:22:34.059Z,254.20
2023-03-14T17:25:02.521Z,205.70
2023-03-14T17:27:30.578Z,85.10
2023-03-14T17:29:58.366Z,658.30
2023-03-14T17:32:26.833Z,292.50
2023-03-14T17:34:54.839Z,426.60
2023-03-14T17:37:22.921Z,488.40
2023-03-14T17:39:50.816Z,374.30
2023-03-14T17:42:18.928Z,244.50
2023-03-14T17:44:46.780Z,251.70
2023-03-14T17:47:14.593Z,303.60
2023-03-14T17:49:42.623Z,137.50
2023-03-14T17:52:12.906Z,66.30
2023-03-14T17:54:41.127Z,500.50
2023-03-14T17:57:09.326Z,98.50
2023-03-14T17:59:37.149Z,123.80
2023-03-14T18:02:05.426Z,139.50
2023-03-14T18:04:33.520Z,174.00
2023-03-14T18:07:01.732Z,87.30
2023-03-14T18:09:29.538Z,129.60
2023-03-14T18:12:07.155Z,87.00
2023-03-14T18:14:37.286Z,128.50
2023-03-14T18:17:06.193Z,142.50
2023-03-14T18:19:34.411Z,115.70
2023-03-14T18:22:02.221Z,185.90
2023-03-14T18:24:30.482Z,101.80
2023-03-14T18:26:58.384Z,49.60
2023-03-14T18:29:26.356Z,32.60
2023-03-14T18:31:56.949Z,32.40
2023-03-14T18:34:25.708Z,32.30
2023-03-14T18:36:54.018Z,34.50
2023-03-14T18:39:22.288Z,33.60
2023-03-14T18:41:50.774Z,54.90
2023-03-14T18:44:18.998Z,62.10
2023-03-14T18:46:48.749Z,45.10
2023-03-14T18:49:16.766Z,41.30
2023-03-14T18:51:44.917Z,35.40
2023-03-14T18:54:13.061Z,28.60
2023-03-14T18:56:41.560Z,28.90
2023-03-14T18:59:10.617Z,32.40
2023-03-14T19:01:39.380Z,35.40
2023-03-14T19:04:09.510Z,35.00
2023-03-14T19:06:38.770Z,37.50
2023-03-14T19:09:07.007Z,34.90
2023-03-14T19:11:34.861Z,24.70
2023-03-14T19:14:03.934Z,25.40
2023-03-14T19:16:32.435Z,23.80
2023-03-14T19:19:00.990Z,26.90
2023-03-14T19:21:31.715Z,26.10
2023-03-14T19:23:59.942Z,29.70
2023-03-14T19:26:30.159Z,37.50
2023-03-14T19:28:59.087Z,42.50
2023-03-14T19:31:27.790Z,8.70
2023-03-14T19:33:55.662Z,20.50
2023-03-14T19:36:26.873Z,10.60
2023-03-14T19:38:55.226Z,24.20
2023-03-14T19:41:25.440Z,14.00
2023-03-14T19:43:53.457Z,16.10
2023-03-14T19:46:22.876Z,10.40
2023-03-14T19:48:54.512Z,7.10
2023-03-14T19:51:23.116Z,7.90
2023-03-14T19:53:51.809Z,6.60
2023-03-14T19:56:21.023Z,3.80
2023-03-14T19:58:49.305Z,4.80
2023-03-14T20:01:17.169Z,5.20
2023-03-14T20:03:45.126Z,4.80
2023-03-14T20:06:13.271Z,5.60
2023-03-14T20:08:43.178Z,7.90
2023-03-14T20:11:11.223Z,6.30
2023-03-14T20:13:39.454Z,4.10
2023-03-14T20:16:10.732Z,2.80
2023-03-14T20:18:39.758Z,1.30
2023-03-14T20:21:12.938Z,1.60
2023-03-14T20:23:44.108Z,2.50
2023-03-14T20:26:12.262Z,3.90
2023-03-14T20:28:42.780Z,3.40
2023-03-14T20:31:10.847Z,1.40
2023-03-14T20:33:38.921Z,2.60
2023-03-14T20:36:07.865Z,2.90
2023-03-14T20:38:36.844Z,1.90
2023-03-14T20:41:05.624Z,3.20
2023-03-14T20:43:34.096Z,3.00
2023-03-14T20:46:02.757Z,5.80
2023-03-14T20:48:31.636Z,2.20
2023-03-14T20:51:01.620Z,11.00
2023-03-14T20:53:29.515Z,3.10
2023-03-14T20:55:58.296Z,4.30
2023-03-14T20:58:26.283Z,2.60
2023-03-14T21:00:55.747Z,3.30
2023-03-14T21:03:24.703Z,2.70
2023-03-14T21:05:52.913Z,2.40
2023-03-14T21:08:23.852Z,2.80
2023-03-14T21:10:54.541Z,2.10
2023-03-14T21:13:24.250Z,3.20
2023-03-14T21:15:52.552Z,10.10
2023-03-14T21:18:23.037Z,3.70
2023-03-14T21:20:53.408Z,9.00
2023-03-14T21:23:26.386Z,12.00
2023-03-14T21:25:56.676Z,86.30
2023-03-14T21:28:25.138Z,9.30
2023-03-14T21:30:53.447Z,10.40
2023-03-14T21:33:21.373Z,5.90
2023-03-14T21:35:49.180Z,5.10
2023-03-14T21:38:16.923Z,7.80
2023-03-14T21:40:49.940Z,5.50
2023-03-14T21:43:21.830Z,5.70
2023-03-14T21:45:50.143Z,4.10
2023-03-14T21:48:18.499Z,7.70
2023-03-14T21:50:47.051Z,9.60
2023-03-14T21:53:15.398Z,9.00
2023-03-14T21:55:44.613Z,21.10
2023-03-14T21:58:16.067Z,11.00
2023-03-14T22:00:51.196Z,8.40
2023-03-14T22:03:24.339Z,13.00
2023-03-14T22:05:52.200Z,10.90
2023-03-14T22:08:20.636Z,13.00
2023-03-14T22:10:53.428Z,37.90
2023-03-14T22:13:23.736Z,16.80
2023-03-14T22:15:52.499Z,27.00
2023-03-14T22:18:20.338Z,15.30
2023-03-14T22:20:48.116Z,24.90
2023-03-14T22:23:16.012Z,17.00
2023-03-14T22:25:47.566Z,15.80
2023-03-14T22:28:15.709Z,13.20
2023-03-14T22:30:46.903Z,26.90
2023-03-14T22:33:15.502Z,16.00
2023-03-14T22:35:50.647Z,21.60
2023-03-14T22:38:19.209Z,17.20
2023-03-14T22:40:48.098Z,18.10
2023-03-14T22:43:16.517Z,15.40
2023-03-14T22:45:45.027Z,29.10
2023-03-14T22:48:13.018Z,26.30
2023-03-14T22:50:40.868Z,11.50
2023-03-14T22:53:08.735Z,16.60
2023-03-14T22:55:36.538Z,15.40
2023-03-14T22:58:04.386Z,15.60
2023-03-14T23:00:33.076Z,16.50
2023-03-14T23:03:01.135Z,24.90
2023-03-14T23:05:29.007Z,13.00
2023-03-14T23:07:56.809Z,15.40
2023-03-14T23:10:24.577Z,13.80
2023-03-14T23:12:54.257Z,57.80
2023-03-14T23:15:22.050Z,13.10
2023-03-14T23:17:49.796Z,21.90
2023-03-14T23:20:17.650Z,23.00
2023-03-14T23:22:46.061Z,19.50
2023-03-14T23:25:13.941Z,18.60
2023-03-14T23:27:46.334Z,17.70
2023-03-14T23:30:16.070Z,22.00
2023-03-14T23:32:43.886Z,20.80
2023-03-14T23:35:12.669Z,13.60
2023-03-14T23:37:41.285Z,15.50
2023-03-14T23:40:10.261Z,12.50
2023-03-14T23:42:38.837Z,14.40
2023-03-14T23:45:07.479Z,16.00
2023-03-14T23:47:35.351Z,13.90
2023-03-14T23:50:03.215Z,18.00
2023-03-14T23:52:30.954Z,27.10
2023-03-14T23:54:58.747Z,20.10
2023-03-14T23:57:26.489Z,15.20
2023-03-14T23:59:54.297Z,15.90
